Time;durP1;ratioP1;P1;durP2;ratioP2;P2;SDS_P1;SDS_P2;PMS_P1;PMS_P2;Temp;Humidity;BMP_temperature;BMP_pressure;BME280_temperature;BME280_humidity;BME280_pressure;Samples;Min_cycle;Max_cycle;Signal;HPM_P1;HPM_P2
2021/01/13 00:02:07;;;;;;;14.20;4.57;;;0.90;99.90;;;;;;5064626;28;20098;-75
2021/01/13 00:04:33;;;;;;;16.37;4.57;;;0.80;99.90;;;;;;5061621;28;20134;-71
2021/01/13 00:07:01;;;;;;;13.97;4.17;;;0.80;99.90;;;;;;5064155;28;20098;-70
2021/01/13 00:09:28;;;;;;;9.90;4.67;;;0.70;99.90;;;;;;5068894;28;20349;-73
2021/01/13 00:11:55;;;;;;;11.73;4.37;;;0.80;99.90;;;;;;5063984;28;20052;-71
2021/01/13 00:14:23;;;;;;;11.53;4.53;;;0.80;99.90;;;;;;5063926;28;20055;-75
2021/01/13 00:16:49;;;;;;;14.40;4.20;;;0.70;99.90;;;;;;5063791;28;20047;-70
2021/01/13 00:19:16;;;;;;;15.30;4.40;;;0.70;99.90;;;;;;5064147;28;20060;-71
2021/01/13 00:21:49;;;;;;;11.67;4.10;;;0.80;99.90;;;;;;5072061;28;20048;-71
2021/01/13 00:24:17;;;;;;;9.83;3.73;;;0.90;99.90;;;;;;5082309;28;20055;-71
2021/01/13 00:26:43;;;;;;;11.13;4.33;;;0.90;99.90;;;;;;5073637;28;20048;-69
2021/01/13 00:29:10;;;;;;;11.30;4.80;;;0.80;99.90;;;;;;5073811;28;20127;-70
2021/01/13 00:31:37;;;;;;;15.17;5.20;;;1.00;99.90;;;;;;5067987;28;20057;-75
2021/01/13 00:34:05;;;;;;;10.50;5.13;;;0.90;99.90;;;;;;5066608;28;20048;-69
2021/01/13 00:36:32;;;;;;;16.67;5.73;;;0.90;99.90;;;;;;5067613;28;20044;-73
2021/01/13 00:38:58;;;;;;;14.47;5.10;;;0.90;99.90;;;;;;5066703;28;20949;-69
2021/01/13 00:41:26;;;;;;;14.47;5.87;;;0.70;99.90;;;;;;5067228;28;20250;-70
2021/01/13 00:43:53;;;;;;;16.20;6.10;;;0.60;99.90;;;;;;5066101;28;20055;-70
2021/01/13 00:46:20;;;;;;;13.90;6.63;;;0.90;99.90;;;;;;5066865;28;20056;-74
2021/01/13 00:48:47;;;;;;;12.70;5.80;;;0.90;99.90;;;;;;5066810;28;20057;-74
2021/01/13 00:51:13;;;;;;;20.77;7.60;;;0.90;99.90;;;;;;5068375;28;20044;-69
2021/01/13 00:53:40;;;;;;;15.67;5.87;;;0.80;99.90;;;;;;5070045;28;20048;-69
2021/01/13 00:56:07;;;;;;;19.07;6.50;;;0.80;99.90;;;;;;5066588;28;20044;-76
2021/01/13 00:58:35;;;;;;;17.67;6.93;;;1.00;99.90;;;;;;5068746;28;20049;-70
2021/01/13 01:01:03;;;;;;;15.93;6.67;;;1.00;99.90;;;;;;5066109;28;20414;-71
2021/01/13 01:03:29;;;;;;;18.30;6.73;;;0.90;99.90;;;;;;5065845;28;20049;-72
2021/01/13 01:05:56;;;;;;;16.37;7.10;;;0.90;99.90;;;;;;5066484;28;20044;-69
2021/01/13 01:08:22;;;;;;;23.07;7.43;;;0.80;99.90;;;;;;5065851;28;20048;-70
2021/01/13 01:10:52;;;;;;;18.23;7.47;;;0.90;99.90;;;;;;5066276;28;20071;-70
2021/01/13 01:13:19;;;;;;;16.53;7.57;;;0.90;99.90;;;;;;5065525;28;20048;-72
2021/01/13 01:15:46;;;;;;;18.70;7.23;;;0.90;99.90;;;;;;5066432;28;20063;-69
2021/01/13 01:18:13;;;;;;;15.17;7.00;;;0.80;99.90;;;;;;5066181;28;20592;-69
2021/01/13 01:20:40;;;;;;;16.83;7.10;;;0.80;99.90;;;;;;5066072;28;20455;-69
2021/01/13 01:23:06;;;;;;;18.70;6.93;;;0.70;99.90;;;;;;5065097;28;20638;-75
2021/01/13 01:25:33;;;;;;;20.73;7.40;;;0.80;99.90;;;;;;5066068;28;20052;-72
2021/01/13 01:28:01;;;;;;;17.23;6.90;;;0.80;99.90;;;;;;5065530;28;20044;-70
2021/01/13 01:30:30;;;;;;;20.33;6.53;;;0.80;99.90;;;;;;5078190;28;20049;-71
2021/01/13 01:32:58;;;;;;;14.93;6.87;;;0.70;99.90;;;;;;5076511;28;20044;-69
2021/01/13 01:35:25;;;;;;;17.47;6.47;;;0.60;99.90;;;;;;5084213;28;20500;-69
2021/01/13 01:37:51;;;;;;;21.07;9.07;;;0.50;99.90;;;;;;5085439;28;20051;-69
2021/01/13 01:40:19;;;;;;;15.60;7.30;;;0.70;99.90;;;;;;5085839;28;20088;-73
2021/01/13 01:42:47;;;;;;;17.63;7.03;;;0.60;99.90;;;;;;5083675;28;20427;-73
2021/01/13 01:45:17;;;;;;;19.67;7.20;;;0.80;99.90;;;;;;5084864;28;20051;-70
2021/01/13 01:48:13;;;;;;;17.47;7.03;;;0.80;99.90;;;;;;5085728;28;20048;-69
2021/01/13 01:50:41;;;;;;;18.50;7.17;;;0.80;99.90;;;;;;5078231;28;20595;-70
2021/01/13 01:53:38;;;;;;;15.57;6.50;;;0.90;99.90;;;;;;5085035;28;20052;-70
2021/01/13 01:56:17;;;;;;;17.45;6.40;;;0.80;99.90;;;;;;5085973;28;20473;-72
2021/01/13 01:58:47;;;;;;;15.30;6.13;;;1.00;99.90;;;;;;5085060;28;20048;-73
2021/01/13 02:01:15;;;;;;;14.10;5.90;;;0.90;99.90;;;;;;5085940;28;20519;-72
2021/01/13 02:03:46;;;;;;;12.50;5.93;;;1.10;99.90;;;;;;5084667;28;20056;-69
2021/01/13 02:06:15;;;;;;;15.60;6.73;;;1.10;99.90;;;;;;5084849;28;20412;-69
2021/01/13 02:08:42;;;;;;;15.43;6.20;;;1.10;99.90;;;;;;5085380;28;20070;-69
2021/01/13 02:11:15;;;;;;;13.73;5.37;;;1.10;99.90;;;;;;5085569;28;20105;-71
2021/01/13 02:13:42;;;;;;;17.33;6.70;;;1.10;99.90;;;;;;5075804;28;20066;-75
2021/01/13 02:16:10;;;;;;;17.67;6.50;;;1.10;99.90;;;;;;5064958;28;20052;-73
2021/01/13 02:18:37;;;;;;;13.30;6.20;;;1.10;99.90;;;;;;5064790;28;20045;-74
2021/01/13 02:21:12;;;;;;;17.10;6.67;;;1.20;99.90;;;;;;5064777;28;20456;-70
2021/01/13 02:23:46;;;;;;;17.23;5.70;;;1.20;99.90;;;;;;5063799;28;20048;-70
2021/01/13 02:26:45;;;;;;;17.87;6.20;;;1.10;99.90;;;;;;5064401;28;20170;-75
2021/01/13 02:29:38;;;;;;;23.20;7.30;;;1.00;99.90;;;;;;5061424;28;20413;-73
2021/01/13 02:32:10;;;;;;;19.30;6.17;;;1.10;99.90;;;;;;5073034;28;20584;-70
2021/01/13 02:34:56;;;;;;;18.20;6.73;;;1.00;99.90;;;;;;5082889;28;20047;-72
2021/01/13 02:37:39;;;;;;;16.93;6.33;;;0.90;99.90;;;;;;5070284;28;20148;-70
2021/01/13 02:40:08;;;;;;;18.40;6.73;;;0.90;99.90;;;;;;5080766;28;20047;-69
2021/01/13 02:42:41;;;;;;;23.43;6.87;;;0.80;99.90;;;;;;5077383;28;20052;-70
2021/01/13 02:45:12;;;;;;;26.63;7.57;;;0.80;99.90;;;;;;5066595;28;20052;-70
2021/01/13 02:48:14;;;;;;;19.00;6.80;;;0.80;99.90;;;;;;5076183;28;20044;-73
2021/01/13 02:50:50;;;;;;;15.60;6.43;;;0.80;99.90;;;;;;5073802;28;20451;-73
2021/01/13 02:53:49;;;;;;;16.83;6.72;;;0.90;99.90;;;;;;5070115;28;20129;-76
2021/01/13 02:56:34;;;;;;;17.63;7.00;;;0.80;99.90;;;;;;5069529;28;20408;-69
2021/01/13 02:59:09;;;;;;;25.10;7.57;;;0.60;99.90;;;;;;5069291;28;20048;-70
2021/01/13 03:01:42;;;;;;;14.70;6.80;;;0.80;99.90;;;;;;5064627;28;20047;-70
2021/01/13 03:04:10;;;;;;;20.50;7.67;;;0.70;99.90;;;;;;5082476;28;20134;-69
2021/01/13 03:06:38;;;;;;;20.40;8.03;;;0.70;99.90;;;;;;5084758;28;20051;-70
2021/01/13 03:09:07;;;;;;;25.03;7.73;;;0.50;99.90;;;;;;5076919;28;20040;-70
2021/01/13 03:11:35;;;;;;;26.53;8.00;;;0.60;99.90;;;;;;5075278;28;20047;-69
2021/01/13 03:14:21;;;;;;;15.77;6.47;;;0.60;99.90;;;;;;5075669;28;20327;-73
2021/01/13 03:17:08;;;;;;;18.03;7.00;;;0.70;99.90;;;;;;5075987;28;20097;-69
2021/01/13 03:20:11;;;;;;;20.47;6.80;;;0.70;99.90;;;;;;5063649;28;20052;-72
2021/01/13 03:22:49;;;;;;;19.27;6.77;;;0.80;99.90;;;;;;5058009;28;20405;-68
2021/01/13 03:25:19;;;;;;;20.90;7.60;;;0.70;99.90;;;;;;5075138;28;20048;-75
2021/01/13 03:27:47;;;;;;;20.57;7.20;;;0.70;99.90;;;;;;5070982;28;20456;-69
2021/01/13 03:30:17;;;;;;;22.40;7.73;;;0.70;99.90;;;;;;5083615;28;20236;-68
2021/01/13 03:33:02;;;;;;;20.63;7.60;;;0.70;99.90;;;;;;5079065;28;20483;-73
2021/01/13 03:35:38;;;;;;;31.20;10.60;;;0.70;99.90;;;;;;5070375;28;20105;-71
2021/01/13 03:38:13;;;;;;;19.45;5.75;;;0.80;99.90;;;;;;5081627;28;20044;-73
2021/01/13 03:40:42;;;;;;;22.17;7.30;;;1.00;99.90;;;;;;5075764;28;20080;-68
2021/01/13 03:43:17;;;;;;;20.20;6.80;;;1.00;99.90;;;;;;5063241;28;20390;-68
2021/01/13 03:45:47;;;;;;;19.03;6.17;;;1.00;99.90;;;;;;5063962;28;20052;-69
2021/01/13 03:48:42;;;;;;;13.87;5.27;;;1.00;99.90;;;;;;5063845;28;20048;-69
2021/01/13 03:51:34;;;;;;;18.73;5.97;;;0.90;99.90;;;;;;5061263;28;20061;-68
2021/01/13 03:54:04;;;;;;;18.80;6.63;;;0.90;99.90;;;;;;5066083;28;20501;-70
2021/01/13 03:56:49;;;;;;;21.73;6.20;;;0.90;99.90;;;;;;5064821;28;20060;-69
2021/01/13 03:59:28;;;;;;;23.57;5.60;;;0.90;99.90;;;;;;5083944;28;20088;-69
2021/01/13 04:01:58;;;;;;;17.30;5.83;;;0.90;99.90;;;;;;5087381;28;20508;-69
2021/01/13 04:05:01;;;;;;;21.50;6.13;;;1.00;99.90;;;;;;5066751;28;20512;-69
2021/01/13 04:07:37;;;;;;;12.83;4.47;;;1.10;99.90;;;;;;5070429;28;20048;-72
2021/01/13 04:10:07;;;;;;;;;;;1.10;99.90;;;;;;5076183;28;20074;-68
2021/01/13 04:12:38;;;;;;;12.60;4.23;;;1.10;99.90;;;;;;5066784;28;19924;-71
2021/01/13 04:15:06;;;;;;;19.20;5.07;;;1.10;99.90;;;;;;5067907;28;20052;-69
2021/01/13 04:17:32;;;;;;;14.53;4.50;;;1.00;99.90;;;;;;5067508;28;20110;-71
2021/01/13 04:20:00;;;;;;;11.67;4.00;;;1.10;99.90;;;;;;5082216;28;20255;-68
2021/01/13 04:22:27;;;;;;;14.87;5.40;;;1.00;99.90;;;;;;5086962;28;20048;-72
2021/01/13 04:24:55;;;;;;;13.40;4.77;;;1.00;99.90;;;;;;5087645;28;20052;-72
2021/01/13 04:27:22;;;;;;;16.73;5.00;;;1.00;99.90;;;;;;5074953;28;20049;-75
2021/01/13 04:29:49;;;;;;;16.63;4.93;;;1.00;99.90;;;;;;5082855;28;20094;-68
2021/01/13 04:32:16;;;;;;;17.03;5.37;;;1.00;99.90;;;;;;5072944;28;20068;-68
2021/01/13 04:34:43;;;;;;;19.23;5.33;;;0.90;99.90;;;;;;5084282;28;20048;-71
2021/01/13 04:37:11;;;;;;;23.73;6.20;;;1.00;99.90;;;;;;5079093;28;20097;-69
2021/01/13 04:39:38;;;;;;;19.30;5.90;;;1.00;99.90;;;;;;5066624;28;20067;-69
2021/01/13 04:42:09;;;;;;;16.17;5.00;;;1.00;99.90;;;;;;5067567;28;20048;-69
2021/01/13 04:44:43;;;;;;;16.77;6.07;;;1.00;99.90;;;;;;5066102;28;20052;-75
2021/01/13 04:47:10;;;;;;;18.93;5.57;;;1.00;99.90;;;;;;5066722;28;20049;-75
2021/01/13 04:49:38;;;;;;;16.43;5.33;;;0.90;99.90;;;;;;5066812;28;20048;-69
2021/01/13 04:52:10;;;;;;;13.67;5.03;;;1.00;99.90;;;;;;5067354;28;20068;-69
2021/01/13 04:54:39;;;;;;;16.53;5.33;;;1.00;99.90;;;;;;5066127;28;20691;-73
2021/01/13 04:57:17;;;;;;;15.83;5.37;;;1.00;99.90;;;;;;5067325;28;20056;-68
2021/01/13 05:00:30;;;;;;;12.47;4.60;;;1.00;99.90;;;;;;5065995;28;20099;-68
2021/01/13 05:03:37;;;;;;;18.17;5.10;;;1.00;99.90;;;;;;5065791;28;20044;-75
2021/01/13 05:06:27;;;;;;;13.13;4.70;;;1.00;99.90;;;;;;5074240;28;20043;-69
2021/01/13 05:09:04;;;;;;;13.80;5.23;;;0.90;99.90;;;;;;5057597;28;20044;-68
2021/01/13 05:11:39;;;;;;;12.83;4.50;;;0.90;99.90;;;;;;5069820;28;20106;-70
2021/01/13 05:14:08;;;;;;;15.10;4.13;;;0.80;99.90;;;;;;5072668;28;20393;-69
2021/01/13 05:17:00;;;;;;;13.43;5.33;;;0.70;99.90;;;;;;5069853;28;20067;-69
2021/01/13 05:20:06;;;;;;;21.97;5.17;;;0.70;99.90;;;;;;5084178;28;20052;-70
2021/01/13 05:22:34;;;;;;;14.33;5.07;;;0.80;99.90;;;;;;5073907;28;20426;-69
2021/01/13 05:25:04;;;;;;;14.50;5.10;;;0.70;99.90;;;;;;5066743;28;20496;-76
2021/01/13 05:28:02;;;;;;;16.67;4.83;;;0.70;99.90;;;;;;5076853;28;20044;-76
2021/01/13 05:30:32;;;;;;;17.17;5.57;;;0.70;99.90;;;;;;5065995;28;20102;-69
2021/01/13 05:32:59;;;;;;;17.93;5.13;;;0.70;99.90;;;;;;5077672;28;20063;-68
2021/01/13 05:35:29;;;;;;;19.23;5.27;;;0.70;99.90;;;;;;5084375;28;20079;-69
2021/01/13 05:38:09;;;;;;;19.57;5.70;;;0.70;99.90;;;;;;5066506;28;20101;-70
2021/01/13 05:40:43;;;;;;;20.13;5.73;;;0.60;99.90;;;;;;5075134;28;20382;-70
2021/01/13 05:43:11;;;;;;;20.03;5.63;;;0.70;99.90;;;;;;5076854;28;20044;-72
2021/01/13 05:45:40;;;;;;;13.60;4.70;;;0.70;99.90;;;;;;5071613;28;20064;-73
2021/01/13 05:48:18;;;;;;;17.80;5.50;;;0.60;99.90;;;;;;5071360;28;20048;-71
2021/01/13 05:50:45;;;;;;;18.03;5.83;;;0.60;99.90;;;;;;5065538;28;20053;-75
2021/01/13 05:53:12;;;;;;;15.73;5.50;;;0.70;99.90;;;;;;5064992;28;20049;-69
2021/01/13 05:55:50;;;;;;;16.40;5.67;;;0.50;99.90;;;;;;5065945;28;20095;-75
2021/01/13 05:58:23;;;;;;;17.43;6.30;;;0.70;99.90;;;;;;5065118;28;20052;-68
2021/01/13 06:00:52;;;;;;;18.80;6.50;;;0.60;99.90;;;;;;5081355;28;20051;-69
2021/01/13 06:03:22;;;;;;;19.77;6.33;;;0.60;99.90;;;;;;5085209;28;20052;-69
2021/01/13 06:05:54;;;;;;;17.77;6.43;;;0.50;99.90;;;;;;5085933;28;20058;-68
2021/01/13 06:08:27;;;;;;;15.63;6.03;;;0.50;99.90;;;;;;5075883;28;20056;-69
2021/01/13 06:10:57;;;;;;;21.20;7.30;;;0.40;99.90;;;;;;5065470;28;20048;-68
2021/01/13 06:13:29;;;;;;;23.23;6.20;;;0.40;99.90;;;;;;5064444;28;20052;-75
2021/01/13 06:16:00;;;;;;;26.80;6.87;;;0.40;99.90;;;;;;5065344;28;20570;-68
2021/01/13 06:18:27;;;;;;;17.33;6.37;;;0.40;99.90;;;;;;5064916;28;20052;-74
2021/01/13 06:20:57;;;;;;;23.97;7.07;;;0.30;99.90;;;;;;5070334;28;20459;-68
2021/01/13 06:23:28;;;;;;;19.03;7.80;;;0.30;99.90;;;;;;5074824;28;20059;-69
2021/01/13 06:25:56;;;;;;;13.63;6.50;;;0.30;99.90;;;;;;5071299;28;20048;-69
2021/01/13 06:28:32;;;;;;;22.00;7.10;;;0.30;99.90;;;;;;5073082;28;20048;-69
2021/01/13 06:31:07;;;;;;;17.80;6.45;;;0.20;99.90;;;;;;5066268;28;20052;-69
2021/01/13 06:34:00;;;;;;;17.57;6.83;;;0.20;99.90;;;;;;5072524;28;20121;-74
2021/01/13 06:36:31;;;;;;;18.60;6.17;;;0.20;99.90;;;;;;5083972;28;20051;-71
2021/01/13 06:38:58;;;;;;;15.63;6.03;;;0.20;99.90;;;;;;5075894;28;20066;-75
2021/01/13 06:41:26;;;;;;;16.33;7.10;;;0.20;99.90;;;;;;5076922;28;20541;-68
2021/01/13 06:44:01;;;;;;;18.47;6.80;;;0.10;99.90;;;;;;5084597;28;20048;-73
2021/01/13 06:46:29;;;;;;;16.70;5.47;;;0.10;99.90;;;;;;5078639;28;20052;-68
2021/01/13 06:49:10;;;;;;;25.57;8.20;;;0.20;99.90;;;;;;5064368;28;20302;-68
2021/01/13 06:51:36;;;;;;;20.27;7.03;;;0.20;99.90;;;;;;5077866;28;20074;-68
2021/01/13 06:54:05;;;;;;;18.47;6.77;;;0.20;99.90;;;;;;5073362;28;20052;-73
2021/01/13 06:56:37;;;;;;;19.93;7.87;;;0.20;99.90;;;;;;5072255;28;20052;-75
2021/01/13 06:59:05;;;;;;;23.87;7.17;;;0.20;99.90;;;;;;5080823;28;20044;-69
2021/01/13 07:01:31;;;;;;;17.63;6.27;;;0.20;99.90;;;;;;5064605;28;20106;-74
2021/01/13 07:04:00;;;;;;;16.70;6.13;;;0.20;99.90;;;;;;5082033;28;20052;-71
2021/01/13 07:06:27;;;;;;;21.87;7.43;;;0.30;99.90;;;;;;5071661;28;20053;-69
2021/01/13 07:08:53;;;;;;;30.20;8.97;;;0.30;99.90;;;;;;5065160;28;20052;-68
2021/01/13 07:11:21;;;;;;;19.23;6.80;;;0.40;99.90;;;;;;5067350;28;20118;-72
2021/01/13 07:13:51;;;;;;;24.50;6.07;;;0.50;99.90;;;;;;5073972;28;20086;-70
2021/01/13 07:16:26;;;;;;;24.90;6.77;;;0.40;99.90;;;;;;5069191;28;20044;-69
2021/01/13 07:18:53;;;;;;;22.53;6.80;;;0.40;99.90;;;;;;5068589;28;20052;-70
2021/01/13 07:21:19;;;;;;;18.70;6.03;;;0.40;99.90;;;;;;5072621;28;20113;-69
2021/01/13 07:23:47;;;;;;;16.63;6.60;;;0.50;99.90;;;;;;5066061;28;20056;-69
2021/01/13 07:26:14;;;;;;;15.20;5.50;;;0.40;99.90;;;;;;5064421;28;20084;-74
2021/01/13 07:28:41;;;;;;;20.50;6.87;;;0.50;99.90;;;;;;5076339;28;20047;-68
2021/01/13 07:31:08;;;;;;;25.40;7.03;;;0.40;99.90;;;;;;5075452;28;20051;-75
2021/01/13 07:33:41;;;;;;;23.40;6.03;;;0.50;99.90;;;;;;5077050;28;20045;-69
2021/01/13 07:36:13;;;;;;;10.10;3.37;;;0.50;99.90;;;;;;5075480;28;20051;-70
2021/01/13 07:38:44;;;;;;;20.87;5.83;;;0.50;99.90;;;;;;5078009;28;20484;-69
2021/01/13 07:41:21;;;;;;;18.90;5.47;;;0.50;99.90;;;;;;5075770;28;20064;-73
2021/01/13 07:44:14;;;;;;;14.33;4.70;;;0.50;99.90;;;;;;5079101;28;20075;-72
2021/01/13 07:47:00;;;;;;;12.83;5.30;;;0.60;99.90;;;;;;5068314;28;20136;-69
2021/01/13 07:49:47;;;;;;;20.13;5.50;;;0.60;99.90;;;;;;5072308;28;20052;-77
2021/01/13 07:52:18;;;;;;;15.00;5.57;;;0.80;99.90;;;;;;5088960;28;20408;-79
2021/01/13 07:54:50;;;;;;;19.10;5.63;;;0.70;99.90;;;;;;5091158;28;20052;-69
2021/01/13 07:57:23;;;;;;;15.20;5.40;;;0.80;99.90;;;;;;5066880;28;20056;-70
2021/01/13 08:00:04;;;;;;;14.10;5.87;;;0.90;99.90;;;;;;5074537;28;20101;-72
2021/01/13 08:03:33;;;;;;;22.50;4.83;;;0.90;99.90;;;;;;5074929;28;20071;-71
2021/01/13 08:06:36;;;;;;;11.93;4.55;;;1.10;99.90;;;;;;5082211;28;20067;-69
2021/01/13 08:09:16;;;;;;;17.93;4.30;;;1.00;99.90;;;;;;5077563;28;20044;-71
2021/01/13 08:12:24;;;;;;;16.50;4.37;;;1.00;99.90;;;;;;5080456;28;20048;-75
2021/01/13 08:15:35;;;;;;;24.30;4.15;;;1.10;99.90;;;;;;5073804;28;20067;-68
2021/01/13 08:18:49;;;;;;;16.27;3.77;;;1.20;99.90;;;;;;5070282;28;20685;-71
2021/01/13 08:21:23;;;;;;;16.77;4.20;;;1.20;99.90;;;;;;5057593;28;20062;-73
2021/01/13 08:23:55;;;;;;;10.63;3.83;;;1.20;99.90;;;;;;5082329;28;20109;-69
2021/01/13 08:26:23;;;;;;;10.30;3.50;;;1.40;99.90;;;;;;5070568;28;20459;-74
2021/01/13 08:28:52;;;;;;;15.73;2.80;;;1.50;99.90;;;;;;5079400;28;20416;-73
2021/01/13 08:31:21;;;;;;;12.77;3.57;;;1.40;99.90;;;;;;5079188;28;20079;-70
2021/01/13 08:33:50;;;;;;;21.17;4.17;;;1.40;99.90;;;;;;5066672;28;20123;-69
2021/01/13 08:36:17;;;;;;;14.47;4.33;;;1.40;99.90;;;;;;5077585;28;20056;-72
2021/01/13 08:39:07;;;;;;;20.93;5.47;;;1.60;99.90;;;;;;5078450;28;20044;-67
2021/01/13 08:41:35;;;;;;;14.00;3.77;;;1.60;99.90;;;;;;5072282;28;20776;-67
2021/01/13 08:44:04;;;;;;;13.63;4.87;;;1.50;99.90;;;;;;5072094;28;20264;-67
2021/01/13 08:46:40;;;;;;;15.93;5.23;;;1.60;99.90;;;;;;5079134;28;20071;-67
2021/01/13 08:49:07;;;;;;;12.40;3.23;;;1.40;99.90;;;;;;5068886;28;20051;-67
2021/01/13 08:51:35;;;;;;;12.23;3.47;;;1.50;99.90;;;;;;5068420;28;20056;-67
2021/01/13 08:54:21;;;;;;;17.70;4.37;;;1.50;99.90;;;;;;5065511;28;20052;-67
2021/01/13 08:56:59;;;;;;;12.43;3.30;;;1.70;99.90;;;;;;5068575;28;20098;-67
2021/01/13 08:59:38;;;;;;;16.40;3.83;;;1.60;99.90;;;;;;5069254;28;20060;-68
2021/01/13 09:02:07;;;;;;;18.37;4.53;;;1.60;99.90;;;;;;5076586;28;20053;-70
2021/01/13 09:04:52;;;;;;;15.40;3.73;;;1.70;99.90;;;;;;5070270;28;20044;-68
2021/01/13 09:07:24;;;;;;;12.80;2.60;;;1.80;99.90;;;;;;5066699;28;20468;-73
2021/01/13 09:10:01;;;;;;;10.40;2.73;;;1.80;99.90;;;;;;5064616;28;20532;-68
2021/01/13 09:12:38;;;;;;;13.93;2.97;;;1.90;99.90;;;;;;5065345;28;20493;-68
2021/01/13 09:15:18;;;;;;;7.40;2.20;;;1.90;99.90;;;;;;5065531;28;20049;-70
2021/01/13 09:17:51;;;;;;;9.63;2.67;;;2.10;99.90;;;;;;5066161;28;20060;-70
2021/01/13 09:20:22;;;;;;;10.47;2.73;;;2.20;99.90;;;;;;5064646;28;20514;-71
2021/01/13 09:22:51;;;;;;;11.37;3.23;;;1.90;99.90;;;;;;5065571;28;20118;-71
2021/01/13 09:25:19;;;;;;;12.83;3.40;;;1.90;99.90;;;;;;5066851;28;20060;-71
2021/01/13 09:27:49;;;;;;;9.13;3.60;;;2.10;99.90;;;;;;5067301;28;20361;-71
2021/01/13 09:30:35;;;;;;;23.83;5.07;;;2.20;99.90;;;;;;5080705;28;20048;-71
2021/01/13 09:33:04;;;;;;;10.82;2.75;;;2.20;99.90;;;;;;5076263;28;20139;-71
2021/01/13 09:35:33;;;;;;;12.17;2.93;;;2.30;99.90;;;;;;5075067;28;20072;-71
2021/01/13 09:38:02;;;;;;;10.70;3.43;;;2.50;99.90;;;;;;5085687;28;20087;-72
2021/01/13 09:40:54;;;;;;;12.97;2.50;;;2.40;99.90;;;;;;5076307;28;20055;-71
2021/01/13 09:43:28;;;;;;;8.97;2.47;;;2.50;99.90;;;;;;5067940;28;20124;-75
2021/01/13 09:45:56;;;;;;;17.20;3.30;;;2.50;99.90;;;;;;5067722;28;20079;-72
2021/01/13 09:48:23;;;;;;;11.30;3.80;;;2.50;99.90;;;;;;5072812;28;20044;-73
2021/01/13 09:50:59;;;;;;;12.60;2.80;;;2.50;99.90;;;;;;5080214;28;20044;-72
2021/01/13 09:53:31;;;;;;;12.93;2.43;;;2.50;99.90;;;;;;5074917;28;20285;-74
2021/01/13 09:56:07;;;;;;;18.43;3.63;;;2.70;99.90;;;;;;5080493;28;20059;-72
2021/01/13 09:58:40;;;;;;;14.05;3.03;;;2.60;99.90;;;;;;5074865;28;20044;-71
2021/01/13 10:01:10;;;;;;;12.60;2.97;;;2.40;99.90;;;;;;5078382;28;20055;-73
2021/01/13 10:03:38;;;;;;;11.37;3.13;;;2.40;99.90;;;;;;5070475;28;20429;-75
2021/01/13 10:06:16;;;;;;;12.93;3.33;;;2.50;99.90;;;;;;5079074;28;20040;-71
2021/01/13 10:08:44;;;;;;;18.60;3.17;;;2.40;99.90;;;;;;5079425;28;20043;-74
2021/01/13 10:11:12;;;;;;;11.37;2.97;;;2.30;99.90;;;;;;5080685;28;20540;-69
2021/01/13 10:13:40;;;;;;;15.70;3.10;;;2.40;99.90;;;;;;5084853;28;20048;-69
2021/01/13 10:16:09;;;;;;;12.37;3.90;;;2.40;99.90;;;;;;5073962;28;20044;-69
2021/01/13 10:18:48;;;;;;;8.70;3.30;;;2.40;99.90;;;;;;5075955;28;20523;-71
2021/01/13 10:21:16;;;;;;;15.57;4.00;;;2.30;99.90;;;;;;5080504;28;20393;-70
2021/01/13 10:23:44;;;;;;;9.93;3.57;;;2.40;99.90;;;;;;5070790;28;20529;-69
2021/01/13 10:26:11;;;;;;;16.87;4.17;;;2.50;99.90;;;;;;5062907;28;20052;-69
2021/01/13 10:28:39;;;;;;;8.37;2.90;;;2.50;99.90;;;;;;5064078;28;20064;-69
2021/01/13 10:31:07;;;;;;;9.97;3.63;;;2.40;99.90;;;;;;5074357;28;20043;-69
2021/01/13 10:33:58;;;;;;;11.07;3.30;;;2.50;99.90;;;;;;5088389;28;20497;-69
2021/01/13 10:36:45;;;;;;;11.23;3.80;;;2.60;99.90;;;;;;5073123;28;20390;-69
2021/01/13 10:39:16;;;;;;;;;;;2.40;99.90;;;;;;5089203;28;20455;-69
2021/01/13 10:41:44;;;;;;;12.23;3.73;;;2.40;99.90;;;;;;5089537;28;19920;-69
2021/01/13 10:44:15;;;;;;;11.57;2.80;;;2.50;99.90;;;;;;5087973;28;20070;-69
2021/01/13 10:46:46;;;;;;;10.43;3.47;;;2.30;99.90;;;;;;5088009;28;20052;-69
2021/01/13 10:49:20;;;;;;;9.80;3.10;;;2.30;99.90;;;;;;5087991;28;20052;-68
2021/01/13 10:51:49;;;;;;;11.63;3.10;;;2.30;99.90;;;;;;5088156;28;20048;-69
2021/01/13 10:54:21;;;;;;;12.23;2.97;;;2.40;99.90;;;;;;5087277;28;20075;-71
2021/01/13 10:56:59;;;;;;;12.47;3.33;;;2.40;99.90;;;;;;5087210;28;20044;-69
2021/01/13 10:59:28;;;;;;;16.17;3.87;;;2.40;99.90;;;;;;5083527;28;20495;-69
2021/01/13 11:02:00;;;;;;;8.57;3.17;;;2.60;99.90;;;;;;5087614;28;20431;-70
2021/01/13 11:04:34;;;;;;;12.77;3.13;;;2.50;99.90;;;;;;5087376;28;20048;-70
2021/01/13 11:07:07;;;;;;;13.20;3.33;;;2.40;99.90;;;;;;5087213;28;20507;-69
2021/01/13 11:09:34;;;;;;;9.10;3.40;;;2.30;99.90;;;;;;5086791;28;20397;-69
2021/01/13 11:12:01;;;;;;;13.50;4.60;;;2.30;99.90;;;;;;5087343;28;20044;-69
2021/01/13 11:14:34;;;;;;;10.07;4.00;;;2.30;99.90;;;;;;5087031;28;20048;-70
2021/01/13 11:17:12;;;;;;;8.40;3.03;;;2.10;99.90;;;;;;5087628;28;20040;-70
2021/01/13 11:19:43;;;;;;;10.37;3.40;;;2.20;99.90;;;;;;5081048;28;20052;-72
2021/01/13 11:22:10;;;;;;;7.33;2.77;;;2.20;99.90;;;;;;5087800;28;20102;-71
2021/01/13 11:24:40;;;;;;;11.63;3.50;;;2.20;99.90;;;;;;5086414;28;20059;-74
2021/01/13 11:27:10;;;;;;;10.97;3.57;;;2.40;99.90;;;;;;5077484;28;20497;-71
2021/01/13 11:29:40;;;;;;;16.27;3.80;;;2.50;99.90;;;;;;5069530;28;20052;-71
2021/01/13 11:32:09;;;;;;;12.87;3.60;;;2.40;99.90;;;;;;5071792;28;20045;-71
2021/01/13 11:34:36;;;;;;;15.73;3.60;;;2.50;99.90;;;;;;5079107;28;20040;-76
2021/01/13 11:37:37;;;;;;;7.93;3.40;;;2.60;99.90;;;;;;5076116;28;20040;-71
2021/01/13 11:40:08;;;;;;;8.83;4.00;;;2.40;99.90;;;;;;5065102;28;20058;-75
2021/01/13 11:43:17;;;;;;;11.50;4.60;;;2.50;99.90;;;;;;5066109;28;20075;-71
2021/01/13 11:46:02;;;;;;;14.83;3.57;;;2.60;99.90;;;;;;5059515;28;20106;-72
2021/01/13 11:48:49;;;;;;;7.07;3.30;;;2.60;99.90;;;;;;5071930;28;20052;-73
2021/01/13 11:51:19;;;;;;;13.18;3.35;;;2.60;99.90;;;;;;5084163;28;20048;-74
2021/01/13 11:53:51;;;;;;;10.53;3.93;;;2.60;99.90;;;;;;5082091;28;20084;-72
2021/01/13 11:56:28;;;;;;;10.87;2.87;;;2.60;99.90;;;;;;5084384;28;20067;-74
2021/01/13 11:58:56;;;;;;;18.40;4.50;;;2.70;99.90;;;;;;5075612;28;20529;-74
2021/01/13 12:01:24;;;;;;;8.77;3.67;;;3.00;99.90;;;;;;5079180;28;20048;-75
2021/01/13 12:03:59;;;;;;;11.97;3.17;;;3.20;99.90;;;;;;5094849;28;20048;-72
2021/01/13 12:06:26;;;;;;;7.57;3.03;;;3.70;99.90;;;;;;5095682;28;20052;-75
2021/01/13 12:08:54;;;;;;;11.70;2.97;;;4.60;99.90;;;;;;5077253;28;20052;-73
2021/01/13 12:11:21;;;;;;;8.97;3.10;;;5.30;99.90;;;;;;5079070;28;20049;-72
2021/01/13 12:13:48;;;;;;;8.73;2.80;;;5.90;99.90;;;;;;5084257;28;20067;-76
2021/01/13 12:16:16;;;;;;;8.50;2.90;;;6.90;99.90;;;;;;5069470;28;20500;-71
2021/01/13 12:18:47;;;;;;;7.35;2.95;;;6.90;99.90;;;;;;5081625;28;20052;-73
2021/01/13 12:21:27;;;;;;;8.73;2.88;;;7.20;99.90;;;;;;5076651;28;20462;-72
2021/01/13 12:23:55;;;;;;;7.83;2.90;;;6.50;99.90;;;;;;5068669;28;20157;-72
2021/01/13 12:26:27;;;;;;;9.90;2.87;;;6.20;99.90;;;;;;5072162;28;20044;-75
2021/01/13 12:28:56;;;;;;;14.13;3.20;;;6.80;99.90;;;;;;5090306;28;20044;-75
2021/01/13 12:31:26;;;;;;;9.43;3.20;;;6.90;99.90;;;;;;5104810;28;20185;-74
2021/01/13 12:33:55;;;;;;;11.10;3.43;;;6.90;99.90;;;;;;5104127;28;20052;-74
2021/01/13 12:36:23;;;;;;;6.03;2.73;;;6.30;99.90;;;;;;5081873;28;20060;-71
2021/01/13 12:38:50;;;;;;;13.10;3.00;;;5.20;99.90;;;;;;5070247;28;20055;-71
2021/01/13 12:41:25;;;;;;;10.77;4.13;;;4.80;99.90;;;;;;5074787;28;20059;-72
2021/01/13 12:43:52;;;;;;;9.77;3.40;;;4.60;99.90;;;;;;5098746;28;20043;-74
2021/01/13 12:46:29;;;;;;;13.10;4.50;;;4.60;99.90;;;;;;5091380;28;20086;-75
2021/01/13 12:48:57;;;;;;;11.02;3.10;;;5.20;99.90;;;;;;5078976;28;20455;-72
2021/01/13 12:51:25;;;;;;;11.57;3.10;;;5.70;99.90;;;;;;5081513;28;20381;-71
2021/01/13 12:53:55;;;;;;;7.97;3.00;;;6.30;99.90;;;;;;5081163;28;20048;-76
2021/01/13 12:56:23;;;;;;;8.63;3.27;;;5.70;99.90;;;;;;5082534;28;20150;-75
2021/01/13 12:58:50;;;;;;;7.33;2.43;;;4.70;99.90;;;;;;5073944;28;20435;-76
2021/01/13 13:01:16;;;;;;;13.87;4.00;;;5.20;99.90;;;;;;5086628;28;20055;-72
2021/01/13 13:03:43;;;;;;;8.43;3.70;;;4.80;99.90;;;;;;5090020;28;20103;-75
2021/01/13 13:06:13;;;;;;;7.50;2.70;;;5.20;99.90;;;;;;5094198;28;20051;-77
2021/01/13 13:08:40;;;;;;;9.30;2.90;;;5.50;99.90;;;;;;5091946;28;20048;-72
2021/01/13 13:11:09;;;;;;;12.67;4.37;;;5.30;99.90;;;;;;5085302;28;20047;-77
2021/01/13 13:13:36;;;;;;;10.50;3.43;;;5.10;99.90;;;;;;5076070;28;20139;-71
2021/01/13 13:16:03;;;;;;;11.93;3.90;;;5.20;99.90;;;;;;5080741;28;20044;-76
2021/01/13 13:18:30;;;;;;;10.47;3.63;;;4.90;99.90;;;;;;5077735;28;20499;-71
2021/01/13 13:20:56;;;;;;;16.10;3.70;;;4.00;99.90;;;;;;5079845;28;20075;-71